N152CD KOKC-KEYW
Flight info
| Callsign | N152CD |
|---|---|
| Flight time | 2h 16m |
| Altitude | 39000 |
| Route | TEBRD3 ATOKA SUTTN MEI SNAPY Q81 KARTR KRAKN1 |
| Aircraft | C750/M-SBDE3FGHRWXY/S |
Departure
| Time | 2026-04-21 17:50 |
|---|---|
| Airport | OKC Will Rogers World Airport (KOKC) |
Arrival
| Time | 2026-04-21 20:06 |
|---|---|
| Airport | Key West International Airport (KEYW) |
| Time | Latitude | Longitude | Altitude | Speed | Heading |
|---|---|---|---|---|---|
| 2026-04-21 17:26 | 35.39655 | -97.58523 | 1288 ft | 0 kts | 41° |
| 2026-04-21 17:46 | 35.39660 | -97.58516 | 1288 ft | 0 kts | 71° |
| 2026-04-21 17:46 | 35.39655 | -97.58511 | 1288 ft | 1 kts | 146° |
| 2026-04-21 17:46 | 35.39636 | -97.58515 | 1288 ft | 3 kts | 214° |
| 2026-04-21 17:46 | 35.39636 | -97.58553 | 1287 ft | 9 kts | 270° |
| 2026-04-21 17:47 | 35.39659 | -97.58609 | 1288 ft | 5 kts | 357° |
| 2026-04-21 17:47 | 35.39698 | -97.58612 | 1289 ft | 6 kts | 346° |
| 2026-04-21 17:47 | 35.39720 | -97.58643 | 1289 ft | 6 kts | 296° |
| 2026-04-21 17:47 | 35.39719 | -97.58688 | 1289 ft | 7 kts | 269° |
| 2026-04-21 17:48 | 35.39719 | -97.58734 | 1289 ft | 8 kts | 271° |
| 2026-04-21 17:48 | 35.39719 | -97.58803 | 1289 ft | 5 kts | 270° |
| 2026-04-21 17:48 | 35.39716 | -97.58849 | 1290 ft | 5 kts | 246° |
| 2026-04-21 17:48 | 35.39694 | -97.58871 | 1291 ft | 5 kts | 214° |
| 2026-04-21 17:49 | 35.39662 | -97.58890 | 1291 ft | 7 kts | 199° |
| 2026-04-21 17:49 | 35.39573 | -97.58894 | 1292 ft | 37 kts | 180° |
| 2026-04-21 17:49 | 35.38934 | -97.58893 | 1310 ft | 132 kts | 180° |
| 2026-04-21 17:49 | 35.37949 | -97.58895 | 1768 ft | 155 kts | 179° |
| 2026-04-21 17:50 | 35.36771 | -97.58852 | 2253 ft | 185 kts | 178° |
| 2026-04-21 17:50 | 35.35397 | -97.58709 | 2800 ft | 214 kts | 166° |
| 2026-04-21 17:50 | 35.34111 | -97.57536 | 3219 ft | 253 kts | 132° |
| 2026-04-21 17:50 | 35.33162 | -97.55705 | 4331 ft | 254 kts | 126° |
| 2026-04-21 17:51 | 35.32186 | -97.53903 | 5293 ft | 262 kts | 129° |
| 2026-04-21 17:51 | 35.31104 | -97.52086 | 6229 ft | 267 kts | 129° |
| 2026-04-21 17:51 | 35.30018 | -97.50237 | 7262 ft | 267 kts | 129° |
| 2026-04-21 17:51 | 35.28945 | -97.48357 | 8276 ft | 273 kts | 127° |
| 2026-04-21 17:52 | 35.27840 | -97.46430 | 9266 ft | 279 kts | 127° |
| 2026-04-21 17:52 | 35.26711 | -97.44481 | 10272 ft | 282 kts | 128° |
| 2026-04-21 17:52 | 35.25534 | -97.42451 | 10618 ft | 306 kts | 127° |
| 2026-04-21 17:52 | 35.24263 | -97.40252 | 10788 ft | 334 kts | 127° |
| 2026-04-21 17:53 | 35.22934 | -97.37947 | 11076 ft | 352 kts | 126° |
| 2026-04-21 17:53 | 35.21522 | -97.35500 | 11914 ft | 353 kts | 126° |
| 2026-04-21 17:53 | 35.20090 | -97.33030 | 12599 ft | 359 kts | 126° |
| 2026-04-21 17:53 | 35.18632 | -97.30516 | 13307 ft | 364 kts | 126° |
| 2026-04-21 17:54 | 35.17157 | -97.27970 | 13998 ft | 369 kts | 125° |
| 2026-04-21 17:54 | 35.15663 | -97.25393 | 14620 ft | 374 kts | 126° |
| 2026-04-21 17:54 | 35.14665 | -97.23673 | 15036 ft | 376 kts | 126° |
| 2026-04-21 17:54 | 35.13144 | -97.21055 | 15670 ft | 380 kts | 126° |
| 2026-04-21 17:55 | 35.11604 | -97.18407 | 16309 ft | 384 kts | 126° |
| 2026-04-21 17:55 | 35.10047 | -97.15731 | 16956 ft | 389 kts | 126° |
| 2026-04-21 17:55 | 35.08472 | -97.13025 | 17640 ft | 393 kts | 126° |
| 2026-04-21 17:55 | 35.06877 | -97.10286 | 18263 ft | 400 kts | 126° |
| 2026-04-21 17:56 | 35.05251 | -97.07504 | 18926 ft | 403 kts | 126° |
| 2026-04-21 17:56 | 35.03624 | -97.04718 | 19605 ft | 406 kts | 126° |
| 2026-04-21 17:56 | 35.01979 | -97.01897 | 20247 ft | 410 kts | 126° |
| 2026-04-21 17:56 | 35.00273 | -96.99095 | 20841 ft | 414 kts | 130° |
| 2026-04-21 17:57 | 34.98323 | -96.96462 | 21388 ft | 421 kts | 133° |
| 2026-04-21 17:57 | 34.96329 | -96.93863 | 22165 ft | 422 kts | 133° |
| 2026-04-21 17:57 | 34.94344 | -96.91208 | 22831 ft | 425 kts | 132° |
| 2026-04-21 17:57 | 34.92365 | -96.88511 | 23494 ft | 429 kts | 131° |
| 2026-04-21 17:58 | 34.90345 | -96.85795 | 23981 ft | 436 kts | 132° |
| 2026-04-21 17:58 | 34.88288 | -96.83071 | 24608 ft | 437 kts | 133° |
| 2026-04-21 17:58 | 34.86227 | -96.80328 | 25129 ft | 442 kts | 133° |
| 2026-04-21 17:58 | 34.84152 | -96.77540 | 25649 ft | 446 kts | 133° |
| 2026-04-21 17:59 | 34.82060 | -96.74740 | 26263 ft | 447 kts | 134° |
| 2026-04-21 17:59 | 34.79959 | -96.71948 | 26867 ft | 448 kts | 134° |
| 2026-04-21 17:59 | 34.77849 | -96.69144 | 27406 ft | 451 kts | 134° |
| 2026-04-21 17:59 | 34.75726 | -96.66314 | 27961 ft | 453 kts | 134° |
| 2026-04-21 18:00 | 34.73594 | -96.63475 | 28530 ft | 456 kts | 134° |
| 2026-04-21 18:00 | 34.71448 | -96.60623 | 29063 ft | 458 kts | 134° |
| 2026-04-21 18:00 | 34.69288 | -96.57757 | 29594 ft | 461 kts | 135° |
| 2026-04-21 18:00 | 34.67115 | -96.54875 | 30087 ft | 464 kts | 135° |
| 2026-04-21 18:01 | 34.64932 | -96.51980 | 30560 ft | 467 kts | 135° |
| 2026-04-21 18:01 | 34.62836 | -96.48945 | 30908 ft | 473 kts | 128° |
| 2026-04-21 18:01 | 34.61124 | -96.45512 | 31349 ft | 478 kts | 120° |
| 2026-04-21 18:01 | 34.59845 | -96.41777 | 31951 ft | 481 kts | 111° |
| 2026-04-21 18:02 | 34.58871 | -96.37893 | 32505 ft | 481 kts | 110° |
| 2026-04-21 18:02 | 34.57902 | -96.34012 | 33066 ft | 481 kts | 110° |
| 2026-04-21 18:02 | 34.56924 | -96.30136 | 33633 ft | 480 kts | 111° |
| 2026-04-21 18:02 | 34.55967 | -96.26332 | 34358 ft | 476 kts | 111° |
| 2026-04-21 18:03 | 34.55004 | -96.22490 | 34844 ft | 477 kts | 111° |
| 2026-04-21 18:03 | 34.54035 | -96.18641 | 35278 ft | 478 kts | 111° |
| 2026-04-21 18:03 | 34.53059 | -96.14779 | 35739 ft | 479 kts | 110° |
| 2026-04-21 18:03 | 34.52082 | -96.10913 | 36206 ft | 480 kts | 110° |
| 2026-04-21 18:04 | 34.51103 | -96.07036 | 36627 ft | 483 kts | 110° |
| 2026-04-21 18:04 | 34.50111 | -96.03122 | 36976 ft | 487 kts | 109° |
| 2026-04-21 18:04 | 34.49114 | -95.99197 | 37485 ft | 487 kts | 109° |
| 2026-04-21 18:04 | 34.48118 | -95.95273 | 38026 ft | 487 kts | 109° |
| 2026-04-21 18:05 | 34.47119 | -95.91347 | 38545 ft | 488 kts | 108° |
| 2026-04-21 18:05 | 34.46117 | -95.87416 | 39028 ft | 488 kts | 108° |
| 2026-04-21 18:05 | 34.45113 | -95.83484 | 39271 ft | 493 kts | 108° |
| 2026-04-21 18:05 | 34.44087 | -95.79470 | 39274 ft | 504 kts | 108° |
| 2026-04-21 18:06 | 34.43037 | -95.75373 | 39280 ft | 515 kts | 108° |
| 2026-04-21 18:06 | 34.41966 | -95.71192 | 39289 ft | 525 kts | 108° |
| 2026-04-21 18:06 | 34.39758 | -95.62603 | 39294 ft | 543 kts | 108° |
| 2026-04-21 18:07 | 34.37494 | -95.53821 | 39293 ft | 547 kts | 108° |
| 2026-04-21 18:07 | 34.35221 | -95.45035 | 39269 ft | 547 kts | 108° |
| 2026-04-21 18:08 | 34.32924 | -95.36190 | 39283 ft | 553 kts | 108° |
| 2026-04-21 18:08 | 34.30611 | -95.27308 | 39299 ft | 555 kts | 108° |
| 2026-04-21 18:09 | 34.28285 | -95.18411 | 39298 ft | 554 kts | 109° |
| 2026-04-21 18:09 | 34.25961 | -95.09544 | 39290 ft | 553 kts | 109° |
| 2026-04-21 18:10 | 34.23627 | -95.00674 | 39294 ft | 554 kts | 109° |
| 2026-04-21 18:10 | 34.21284 | -94.91797 | 39303 ft | 556 kts | 109° |
| 2026-04-21 18:11 | 34.18923 | -94.82880 | 39306 ft | 557 kts | 109° |
| 2026-04-21 18:11 | 34.16556 | -94.73970 | 39305 ft | 557 kts | 109° |
| 2026-04-21 18:12 | 34.14183 | -94.65069 | 39300 ft | 557 kts | 109° |
| 2026-04-21 18:12 | 34.11801 | -94.56161 | 39297 ft | 562 kts | 109° |
| 2026-04-21 18:13 | 34.09379 | -94.47135 | 39298 ft | 566 kts | 109° |
| 2026-04-21 18:13 | 34.06950 | -94.38109 | 39295 ft | 566 kts | 109° |
| 2026-04-21 18:14 | 34.03307 | -94.24633 | 39297 ft | 566 kts | 109° |
| 2026-04-21 18:15 | 34.00862 | -94.15623 | 39303 ft | 566 kts | 109° |
| 2026-04-21 18:15 | 33.98406 | -94.06604 | 39304 ft | 566 kts | 109° |
| 2026-04-21 18:16 | 33.95944 | -93.97591 | 39309 ft | 566 kts | 109° |
| 2026-04-21 18:16 | 33.93478 | -93.88590 | 39312 ft | 566 kts | 109° |
| 2026-04-21 18:17 | 33.91003 | -93.79592 | 39306 ft | 566 kts | 109° |
| 2026-04-21 18:17 | 33.88520 | -93.70589 | 39297 ft | 568 kts | 109° |
| 2026-04-21 18:18 | 33.86020 | -93.61554 | 39304 ft | 569 kts | 109° |
| 2026-04-21 18:18 | 33.83515 | -93.52531 | 39305 ft | 568 kts | 109° |
| 2026-04-21 18:19 | 33.81008 | -93.43528 | 39309 ft | 568 kts | 109° |
| 2026-04-21 18:19 | 33.78489 | -93.34511 | 39309 ft | 569 kts | 109° |
| 2026-04-21 18:20 | 33.75963 | -93.25502 | 39308 ft | 568 kts | 109° |
| 2026-04-21 18:20 | 33.73436 | -93.16513 | 39310 ft | 568 kts | 109° |
| 2026-04-21 18:21 | 33.70900 | -93.07523 | 39310 ft | 568 kts | 110° |
| 2026-04-21 18:21 | 33.68362 | -92.98554 | 39307 ft | 566 kts | 110° |
| 2026-04-21 18:22 | 33.65822 | -92.89605 | 39308 ft | 566 kts | 110° |
| 2026-04-21 18:22 | 33.63261 | -92.80614 | 39289 ft | 573 kts | 110° |
| 2026-04-21 18:23 | 33.60679 | -92.71570 | 39287 ft | 572 kts | 110° |
| 2026-04-21 18:23 | 33.58093 | -92.62547 | 39291 ft | 572 kts | 110° |
| 2026-04-21 18:24 | 33.55500 | -92.53524 | 39297 ft | 572 kts | 110° |
| 2026-04-21 18:24 | 33.52901 | -92.44509 | 39299 ft | 572 kts | 110° |
| 2026-04-21 18:25 | 33.50314 | -92.35565 | 39302 ft | 572 kts | 110° |
| 2026-04-21 18:25 | 33.47605 | -92.26537 | 39315 ft | 571 kts | 111° |
| 2026-04-21 18:26 | 33.44927 | -92.17612 | 39317 ft | 569 kts | 110° |
| 2026-04-21 18:26 | 33.42271 | -92.08762 | 39319 ft | 569 kts | 111° |
| 2026-04-21 18:27 | 33.39570 | -91.99841 | 39313 ft | 570 kts | 111° |
| 2026-04-21 18:27 | 33.36880 | -91.90924 | 39315 ft | 570 kts | 111° |
| 2026-04-21 18:28 | 33.34179 | -91.82047 | 39314 ft | 567 kts | 111° |
| 2026-04-21 18:28 | 33.31486 | -91.73183 | 39314 ft | 567 kts | 111° |
| 2026-04-21 18:29 | 33.28771 | -91.64307 | 39320 ft | 568 kts | 111° |
| 2026-04-21 18:29 | 33.26062 | -91.55453 | 39316 ft | 567 kts | 111° |
| 2026-04-21 18:30 | 33.23346 | -91.46614 | 39319 ft | 566 kts | 111° |
| 2026-04-21 18:30 | 33.20629 | -91.37790 | 39318 ft | 566 kts | 111° |
| 2026-04-21 18:31 | 33.17905 | -91.28973 | 39322 ft | 566 kts | 111° |
| 2026-04-21 18:31 | 33.15176 | -91.20167 | 39314 ft | 566 kts | 111° |
| 2026-04-21 18:32 | 33.12422 | -91.11303 | 39326 ft | 573 kts | 111° |
| 2026-04-21 18:32 | 33.09649 | -91.02404 | 39329 ft | 572 kts | 111° |
| 2026-04-21 18:33 | 33.06873 | -90.93524 | 39327 ft | 571 kts | 111° |
| 2026-04-21 18:33 | 33.04092 | -90.84651 | 39325 ft | 571 kts | 111° |
| 2026-04-21 18:34 | 33.01305 | -90.75785 | 39323 ft | 571 kts | 111° |
| 2026-04-21 18:34 | 32.98518 | -90.66944 | 39320 ft | 569 kts | 111° |
| 2026-04-21 18:35 | 32.96200 | -90.59611 | 39318 ft | 570 kts | 111° |
| 2026-04-21 18:35 | 32.92929 | -90.49290 | 39320 ft | 570 kts | 112° |
| 2026-04-21 18:36 | 32.90122 | -90.40464 | 39315 ft | 570 kts | 112° |
| 2026-04-21 18:36 | 32.87328 | -90.31703 | 39309 ft | 574 kts | 112° |
| 2026-04-21 18:37 | 32.84486 | -90.22816 | 39310 ft | 574 kts | 112° |
| 2026-04-21 18:37 | 32.81642 | -90.13947 | 39300 ft | 574 kts | 112° |
| 2026-04-21 18:38 | 32.78795 | -90.05092 | 39302 ft | 574 kts | 112° |
| 2026-04-21 18:38 | 32.75938 | -89.96235 | 39290 ft | 573 kts | 112° |
| 2026-04-21 18:39 | 32.73087 | -89.87419 | 39288 ft | 572 kts | 112° |
| 2026-04-21 18:39 | 32.70229 | -89.78608 | 39284 ft | 572 kts | 112° |
| 2026-04-21 18:40 | 32.67364 | -89.69800 | 39282 ft | 572 kts | 112° |
| 2026-04-21 18:40 | 32.64979 | -89.62484 | 39261 ft | 572 kts | 112° |
| 2026-04-21 18:41 | 32.62104 | -89.53691 | 39244 ft | 572 kts | 112° |
| 2026-04-21 18:41 | 32.59204 | -89.44841 | 39243 ft | 578 kts | 112° |
| 2026-04-21 18:42 | 32.56283 | -89.35957 | 39236 ft | 577 kts | 112° |
| 2026-04-21 18:42 | 32.53363 | -89.27099 | 39240 ft | 577 kts | 112° |
| 2026-04-21 18:43 | 32.50440 | -89.18256 | 39285 ft | 575 kts | 112° |
| 2026-04-21 18:43 | 32.47519 | -89.09443 | 39279 ft | 575 kts | 112° |
| 2026-04-21 18:44 | 32.44589 | -89.00629 | 39265 ft | 575 kts | 112° |
| 2026-04-21 18:44 | 32.41653 | -88.91818 | 39272 ft | 575 kts | 113° |
| 2026-04-21 18:45 | 32.38713 | -88.83021 | 39314 ft | 574 kts | 112° |
| 2026-04-21 18:45 | 32.35219 | -88.74694 | 39315 ft | 567 kts | 122° |
| 2026-04-21 18:46 | 32.31262 | -88.66573 | 39317 ft | 575 kts | 121° |
| 2026-04-21 18:46 | 32.27416 | -88.58208 | 39321 ft | 575 kts | 121° |
| 2026-04-21 18:47 | 32.23483 | -88.50065 | 39324 ft | 575 kts | 121° |
| 2026-04-21 18:47 | 32.19623 | -88.41812 | 39331 ft | 572 kts | 121° |
| 2026-04-21 18:48 | 32.15703 | -88.33641 | 39327 ft | 572 kts | 121° |
| 2026-04-21 18:48 | 32.11815 | -88.25440 | 39330 ft | 573 kts | 121° |
| 2026-04-21 18:49 | 32.07899 | -88.17259 | 39330 ft | 573 kts | 121° |
| 2026-04-21 18:49 | 32.04619 | -88.10404 | 39318 ft | 574 kts | 121° |
| 2026-04-21 18:50 | 32.00037 | -88.00843 | 39325 ft | 577 kts | 121° |
| 2026-04-21 18:50 | 31.96077 | -87.92609 | 39324 ft | 577 kts | 121° |
| 2026-04-21 18:51 | 31.92119 | -87.84387 | 39319 ft | 577 kts | 121° |
| 2026-04-21 18:51 | 31.88151 | -87.76174 | 39318 ft | 577 kts | 121° |
| 2026-04-21 18:52 | 31.84183 | -87.67969 | 39326 ft | 576 kts | 121° |
| 2026-04-21 18:52 | 31.80225 | -87.59810 | 39325 ft | 574 kts | 121° |
| 2026-04-21 18:53 | 31.76262 | -87.51656 | 39316 ft | 576 kts | 121° |
| 2026-04-21 18:53 | 31.72271 | -87.43464 | 39328 ft | 578 kts | 121° |
| 2026-04-21 18:54 | 31.68281 | -87.35286 | 39311 ft | 577 kts | 121° |
| 2026-04-21 18:54 | 31.64317 | -87.27183 | 39319 ft | 575 kts | 121° |
| 2026-04-21 18:55 | 31.60975 | -87.20366 | 39297 ft | 575 kts | 121° |
| 2026-04-21 18:55 | 31.56337 | -87.10922 | 39327 ft | 575 kts | 121° |
| 2026-04-21 18:56 | 31.52333 | -87.02790 | 39321 ft | 575 kts | 121° |
| 2026-04-21 18:56 | 31.48328 | -86.94672 | 39311 ft | 576 kts | 122° |
| 2026-04-21 18:57 | 31.44323 | -86.86570 | 39319 ft | 574 kts | 121° |
| 2026-04-21 18:57 | 31.40317 | -86.78488 | 39303 ft | 574 kts | 121° |
| 2026-04-21 18:58 | 31.36303 | -86.70403 | 39305 ft | 574 kts | 122° |
| 2026-04-21 18:58 | 31.32288 | -86.62334 | 39304 ft | 574 kts | 122° |
| 2026-04-21 18:59 | 31.28264 | -86.54264 | 39311 ft | 573 kts | 122° |
| 2026-04-21 18:59 | 31.24264 | -86.46258 | 39315 ft | 570 kts | 122° |
| 2026-04-21 19:00 | 31.20259 | -86.38262 | 39321 ft | 570 kts | 122° |
| 2026-04-21 19:00 | 31.16245 | -86.30261 | 39322 ft | 572 kts | 122° |
| 2026-04-21 19:01 | 31.12218 | -86.22252 | 39310 ft | 572 kts | 122° |
| 2026-04-21 19:01 | 31.08195 | -86.14266 | 39305 ft | 570 kts | 122° |
| 2026-04-21 19:02 | 31.04177 | -86.06310 | 39303 ft | 568 kts | 122° |
| 2026-04-21 19:02 | 31.00170 | -85.98390 | 39301 ft | 569 kts | 122° |
| 2026-04-21 19:03 | 30.96129 | -85.90419 | 39297 ft | 569 kts | 122° |
| 2026-04-21 19:03 | 30.92101 | -85.82490 | 39293 ft | 570 kts | 122° |
| 2026-04-21 19:04 | 30.88083 | -85.74597 | 39282 ft | 570 kts | 122° |
| 2026-04-21 19:04 | 30.84029 | -85.66649 | 39299 ft | 572 kts | 122° |
| 2026-04-21 19:05 | 30.79967 | -85.58701 | 39300 ft | 571 kts | 122° |
| 2026-04-21 19:05 | 30.75903 | -85.50768 | 39287 ft | 571 kts | 122° |
| 2026-04-21 19:06 | 30.71829 | -85.42830 | 39273 ft | 571 kts | 122° |
| 2026-04-21 19:06 | 30.67758 | -85.34914 | 39287 ft | 571 kts | 123° |
| 2026-04-21 19:07 | 30.63683 | -85.27005 | 39306 ft | 571 kts | 123° |
| 2026-04-21 19:07 | 30.59611 | -85.19119 | 39304 ft | 571 kts | 123° |
| 2026-04-21 19:08 | 30.55516 | -85.11203 | 39300 ft | 571 kts | 123° |
| 2026-04-21 19:08 | 30.51428 | -85.03318 | 39305 ft | 571 kts | 123° |
| 2026-04-21 19:09 | 30.47321 | -84.95412 | 39299 ft | 572 kts | 123° |
| 2026-04-21 19:09 | 30.43214 | -84.87520 | 39296 ft | 572 kts | 123° |
| 2026-04-21 19:10 | 30.39099 | -84.79633 | 39290 ft | 572 kts | 123° |
| 2026-04-21 19:10 | 30.34982 | -84.71753 | 39288 ft | 572 kts | 123° |
| 2026-04-21 19:11 | 30.30855 | -84.63874 | 39297 ft | 573 kts | 123° |
| 2026-04-21 19:11 | 30.26719 | -84.55989 | 39289 ft | 574 kts | 123° |
| 2026-04-21 19:12 | 30.23274 | -84.49435 | 39291 ft | 574 kts | 123° |
| 2026-04-21 19:12 | 30.18453 | -84.40281 | 39289 ft | 574 kts | 123° |
| 2026-04-21 19:13 | 30.14268 | -84.32351 | 39284 ft | 573 kts | 123° |
| 2026-04-21 19:13 | 30.10108 | -84.24486 | 39296 ft | 575 kts | 124° |
| 2026-04-21 19:14 | 30.05926 | -84.16593 | 39295 ft | 576 kts | 124° |
| 2026-04-21 19:14 | 30.01742 | -84.08713 | 39294 ft | 575 kts | 124° |
| 2026-04-21 19:15 | 29.97562 | -84.00853 | 39274 ft | 575 kts | 124° |
| 2026-04-21 19:15 | 29.93408 | -83.93061 | 39280 ft | 576 kts | 124° |
| 2026-04-21 19:16 | 29.89162 | -83.85110 | 39289 ft | 578 kts | 124° |
| 2026-04-21 19:16 | 29.84973 | -83.77285 | 39287 ft | 577 kts | 124° |
| 2026-04-21 19:17 | 29.76921 | -83.67319 | 39275 ft | 562 kts | 149° |
| 2026-04-21 19:17 | 29.70190 | -83.62909 | 39287 ft | 554 kts | 159° |
| 2026-04-21 19:18 | 29.63276 | -83.58984 | 39272 ft | 557 kts | 156° |
| 2026-04-21 19:18 | 29.56639 | -83.54339 | 39271 ft | 559 kts | 154° |
| 2026-04-21 19:19 | 29.49854 | -83.50052 | 39274 ft | 557 kts | 158° |
| 2026-04-21 19:19 | 29.43114 | -83.45602 | 39271 ft | 560 kts | 154° |
| 2026-04-21 19:20 | 29.36355 | -83.41219 | 39261 ft | 557 kts | 157° |
| 2026-04-21 19:20 | 29.29599 | -83.36848 | 39268 ft | 558 kts | 155° |
| 2026-04-21 19:21 | 29.22710 | -83.32880 | 39267 ft | 549 kts | 165° |
| 2026-04-21 19:21 | 29.15530 | -83.29908 | 39266 ft | 549 kts | 166° |
| 2026-04-21 19:22 | 29.08410 | -83.26710 | 39271 ft | 550 kts | 165° |
| 2026-04-21 19:22 | 29.01252 | -83.23661 | 39268 ft | 549 kts | 166° |
| 2026-04-21 19:23 | 28.94114 | -83.20534 | 39267 ft | 550 kts | 165° |
| 2026-04-21 19:23 | 28.86973 | -83.17454 | 39263 ft | 549 kts | 166° |
| 2026-04-21 19:24 | 28.79824 | -83.14361 | 39272 ft | 550 kts | 165° |
| 2026-04-21 19:24 | 28.72725 | -83.11305 | 39257 ft | 550 kts | 166° |
| 2026-04-21 19:25 | 28.66735 | -83.08787 | 39254 ft | 550 kts | 166° |
| 2026-04-21 19:25 | 28.59541 | -83.05710 | 39244 ft | 550 kts | 166° |
| 2026-04-21 19:26 | 28.52366 | -83.02682 | 39246 ft | 550 kts | 166° |
| 2026-04-21 19:26 | 28.45196 | -82.99639 | 39251 ft | 551 kts | 166° |
| 2026-04-21 19:27 | 28.37994 | -82.96599 | 39251 ft | 552 kts | 166° |
| 2026-04-21 19:27 | 28.30783 | -82.93635 | 39239 ft | 547 kts | 169° |
| 2026-04-21 19:28 | 28.23387 | -82.92150 | 39248 ft | 536 kts | 180° |
| 2026-04-21 19:28 | 28.15977 | -82.91036 | 39244 ft | 539 kts | 178° |
| 2026-04-21 19:29 | 28.08548 | -82.89800 | 39257 ft | 539 kts | 179° |
| 2026-04-21 19:29 | 28.01113 | -82.88668 | 39262 ft | 539 kts | 179° |
| 2026-04-21 19:30 | 27.93701 | -82.87419 | 39254 ft | 539 kts | 179° |
| 2026-04-21 19:30 | 27.86253 | -82.86237 | 39246 ft | 539 kts | 179° |
| 2026-04-21 19:31 | 27.78870 | -82.85025 | 39251 ft | 540 kts | 179° |
| 2026-04-21 19:31 | 27.71447 | -82.83690 | 39242 ft | 541 kts | 177° |
| 2026-04-21 19:32 | 27.64089 | -82.82301 | 39249 ft | 541 kts | 177° |
| 2026-04-21 19:32 | 27.56650 | -82.80878 | 39243 ft | 541 kts | 177° |
| 2026-04-21 19:33 | 27.49217 | -82.79469 | 39232 ft | 541 kts | 177° |
| 2026-04-21 19:33 | 27.41791 | -82.78058 | 39237 ft | 541 kts | 177° |
| 2026-04-21 19:34 | 27.34367 | -82.76652 | 39241 ft | 542 kts | 177° |
| 2026-04-21 19:34 | 27.26929 | -82.75243 | 39231 ft | 541 kts | 177° |
| 2026-04-21 19:35 | 27.15805 | -82.73141 | 39225 ft | 542 kts | 177° |
| 2026-04-21 19:36 | 27.08372 | -82.71739 | 39217 ft | 542 kts | 177° |
| 2026-04-21 19:36 | 27.00951 | -82.70315 | 39209 ft | 544 kts | 175° |
| 2026-04-21 19:37 | 26.93725 | -82.67435 | 39220 ft | 562 kts | 159° |
| 2026-04-21 19:37 | 26.87270 | -82.62362 | 39213 ft | 575 kts | 142° |
| 2026-04-21 19:38 | 26.81562 | -82.56025 | 39233 ft | 578 kts | 137° |
| 2026-04-21 19:38 | 26.75721 | -82.49887 | 39227 ft | 574 kts | 143° |
| 2026-04-21 19:39 | 26.69808 | -82.43853 | 39225 ft | 577 kts | 140° |
| 2026-04-21 19:39 | 26.64035 | -82.37742 | 39201 ft | 574 kts | 144° |
| 2026-04-21 19:40 | 26.57620 | -82.32554 | 39224 ft | 571 kts | 151° |
| 2026-04-21 19:40 | 26.51128 | -82.27329 | 39220 ft | 572 kts | 148° |
| 2026-04-21 19:41 | 26.44732 | -82.22170 | 39219 ft | 570 kts | 150° |
| 2026-04-21 19:41 | 26.38266 | -82.17023 | 39218 ft | 572 kts | 149° |
| 2026-04-21 19:42 | 26.31798 | -82.11800 | 38964 ft | 563 kts | 150° |
| 2026-04-21 19:42 | 26.28632 | -82.09294 | 38134 ft | 551 kts | 150° |
| 2026-04-21 19:42 | 26.25571 | -82.06852 | 37437 ft | 531 kts | 149° |
| 2026-04-21 19:42 | 26.22669 | -82.04515 | 36782 ft | 513 kts | 149° |
| 2026-04-21 19:43 | 26.19802 | -82.02223 | 36132 ft | 500 kts | 149° |
| 2026-04-21 19:43 | 26.16962 | -81.99973 | 35483 ft | 493 kts | 149° |
| 2026-04-21 19:43 | 26.14218 | -81.97793 | 34852 ft | 493 kts | 148° |
| 2026-04-21 19:43 | 26.11411 | -81.95551 | 34212 ft | 497 kts | 147° |
| 2026-04-21 19:44 | 26.08594 | -81.93302 | 33572 ft | 500 kts | 147° |
| 2026-04-21 19:44 | 26.05765 | -81.91053 | 32910 ft | 504 kts | 147° |
| 2026-04-21 19:44 | 26.02904 | -81.88782 | 32226 ft | 506 kts | 147° |
| 2026-04-21 19:44 | 26.00037 | -81.86501 | 31588 ft | 510 kts | 147° |
| 2026-04-21 19:45 | 25.97141 | -81.84198 | 30907 ft | 510 kts | 146° |
| 2026-04-21 19:45 | 25.94263 | -81.81913 | 30230 ft | 506 kts | 146° |
| 2026-04-21 19:45 | 25.91424 | -81.79659 | 29536 ft | 497 kts | 146° |
| 2026-04-21 19:45 | 25.88625 | -81.77439 | 28887 ft | 491 kts | 146° |
| 2026-04-21 19:46 | 25.85857 | -81.75246 | 28244 ft | 487 kts | 146° |
| 2026-04-21 19:46 | 25.83112 | -81.73073 | 27606 ft | 482 kts | 146° |
| 2026-04-21 19:46 | 25.80395 | -81.70921 | 26974 ft | 477 kts | 146° |
| 2026-04-21 19:46 | 25.77704 | -81.68792 | 26348 ft | 473 kts | 146° |
| 2026-04-21 19:47 | 25.75056 | -81.66699 | 25729 ft | 468 kts | 146° |
| 2026-04-21 19:47 | 25.72400 | -81.64600 | 25116 ft | 464 kts | 147° |
| 2026-04-21 19:47 | 25.69775 | -81.62538 | 24490 ft | 459 kts | 147° |
| 2026-04-21 19:47 | 25.67028 | -81.60790 | 23695 ft | 453 kts | 155° |
| 2026-04-21 19:48 | 25.64219 | -81.59295 | 23050 ft | 443 kts | 158° |
| 2026-04-21 19:48 | 25.61443 | -81.57839 | 22480 ft | 441 kts | 156° |
| 2026-04-21 19:48 | 25.58729 | -81.56324 | 21900 ft | 438 kts | 155° |
| 2026-04-21 19:48 | 25.56012 | -81.54783 | 21323 ft | 434 kts | 155° |
| 2026-04-21 19:49 | 25.53312 | -81.53323 | 20751 ft | 429 kts | 158° |
| 2026-04-21 19:49 | 25.50488 | -81.52449 | 20151 ft | 420 kts | 176° |
| 2026-04-21 19:49 | 25.47641 | -81.52512 | 19623 ft | 410 kts | 192° |
| 2026-04-21 19:49 | 25.44944 | -81.53420 | 19102 ft | 402 kts | 205° |
| 2026-04-21 19:50 | 25.43275 | -81.54192 | 18786 ft | 401 kts | 206° |
| 2026-04-21 19:50 | 25.39822 | -81.55827 | 18008 ft | 397 kts | 206° |
| 2026-04-21 19:50 | 25.37302 | -81.56991 | 17493 ft | 393 kts | 206° |
| 2026-04-21 19:50 | 25.34772 | -81.58148 | 16971 ft | 390 kts | 206° |
| 2026-04-21 19:51 | 25.32277 | -81.59301 | 16458 ft | 387 kts | 205° |
| 2026-04-21 19:51 | 25.29811 | -81.60450 | 15948 ft | 384 kts | 205° |
| 2026-04-21 19:51 | 25.27355 | -81.61586 | 15438 ft | 381 kts | 206° |
| 2026-04-21 19:51 | 25.24971 | -81.62684 | 14947 ft | 378 kts | 205° |
| 2026-04-21 19:52 | 25.22500 | -81.63821 | 14438 ft | 375 kts | 204° |
| 2026-04-21 19:52 | 25.20102 | -81.64931 | 13940 ft | 372 kts | 204° |
| 2026-04-21 19:52 | 25.17726 | -81.66029 | 13425 ft | 369 kts | 204° |
| 2026-04-21 19:52 | 25.15367 | -81.67115 | 12932 ft | 366 kts | 205° |
| 2026-04-21 19:53 | 25.13022 | -81.68195 | 12450 ft | 363 kts | 204° |
| 2026-04-21 19:53 | 25.10770 | -81.69231 | 11984 ft | 338 kts | 204° |
| 2026-04-21 19:53 | 25.08675 | -81.70195 | 11549 ft | 315 kts | 204° |
| 2026-04-21 19:53 | 25.06716 | -81.71099 | 11144 ft | 297 kts | 204° |
| 2026-04-21 19:54 | 25.04853 | -81.71957 | 10766 ft | 289 kts | 204° |
| 2026-04-21 19:54 | 25.03045 | -81.72789 | 10399 ft | 287 kts | 204° |
| 2026-04-21 19:54 | 25.01201 | -81.73638 | 10015 ft | 287 kts | 203° |
| 2026-04-21 19:54 | 24.99364 | -81.74483 | 9666 ft | 286 kts | 203° |
| 2026-04-21 19:55 | 24.97545 | -81.75319 | 9348 ft | 286 kts | 203° |
| 2026-04-21 19:55 | 24.95712 | -81.76161 | 9028 ft | 288 kts | 202° |
| 2026-04-21 19:55 | 24.93876 | -81.77004 | 8706 ft | 288 kts | 202° |
| 2026-04-21 19:55 | 24.92027 | -81.77853 | 8380 ft | 288 kts | 202° |
| 2026-04-21 19:56 | 24.90188 | -81.78698 | 8053 ft | 287 kts | 202° |
| 2026-04-21 19:56 | 24.88352 | -81.79554 | 7735 ft | 285 kts | 203° |
| 2026-04-21 19:56 | 24.86656 | -81.80677 | 7408 ft | 285 kts | 212° |
| 2026-04-21 19:56 | 24.84999 | -81.81877 | 7096 ft | 285 kts | 212° |
| 2026-04-21 19:57 | 24.83333 | -81.83058 | 6777 ft | 285 kts | 211° |
| 2026-04-21 19:57 | 24.81664 | -81.84230 | 6448 ft | 284 kts | 210° |
| 2026-04-21 19:57 | 24.80000 | -81.85407 | 6118 ft | 285 kts | 211° |
| 2026-04-21 19:57 | 24.78337 | -81.86587 | 5799 ft | 285 kts | 210° |
| 2026-04-21 19:58 | 24.76674 | -81.87764 | 5473 ft | 285 kts | 207° |
| 2026-04-21 19:58 | 24.75005 | -81.88942 | 5156 ft | 286 kts | 207° |
| 2026-04-21 19:58 | 24.73334 | -81.90125 | 4826 ft | 285 kts | 208° |
| 2026-04-21 19:58 | 24.71695 | -81.91285 | 4501 ft | 282 kts | 207° |
| 2026-04-21 19:59 | 24.70049 | -81.92450 | 4191 ft | 277 kts | 207° |
| 2026-04-21 19:59 | 24.68468 | -81.93570 | 3880 ft | 263 kts | 209° |
| 2026-04-21 19:59 | 24.66966 | -81.94631 | 3583 ft | 251 kts | 207° |
| 2026-04-21 19:59 | 24.65586 | -81.95604 | 3299 ft | 242 kts | 206° |
| 2026-04-21 20:00 | 24.64101 | -81.96595 | 3002 ft | 234 kts | 200° |
| 2026-04-21 20:00 | 24.62572 | -81.96888 | 2746 ft | 219 kts | 171° |
| 2026-04-21 20:00 | 24.61091 | -81.96850 | 2881 ft | 211 kts | 171° |
| 2026-04-21 20:00 | 24.59610 | -81.96835 | 2994 ft | 216 kts | 172° |
| 2026-04-21 20:01 | 24.58092 | -81.96797 | 2934 ft | 223 kts | 168° |
| 2026-04-21 20:01 | 24.56696 | -81.96172 | 2704 ft | 214 kts | 136° |
| 2026-04-21 20:01 | 24.55771 | -81.94974 | 2550 ft | 201 kts | 112° |
| 2026-04-21 20:01 | 24.55430 | -81.93529 | 2412 ft | 194 kts | 91° |
| 2026-04-21 20:02 | 24.55442 | -81.92559 | 2338 ft | 189 kts | 86° |
| 2026-04-21 20:02 | 24.55465 | -81.90656 | 2118 ft | 183 kts | 87° |
| 2026-04-21 20:02 | 24.55475 | -81.89322 | 1951 ft | 166 kts | 87° |
| 2026-04-21 20:02 | 24.55486 | -81.88126 | 1776 ft | 143 kts | 86° |
| 2026-04-21 20:03 | 24.55495 | -81.87161 | 1630 ft | 114 kts | 87° |
| 2026-04-21 20:03 | 24.55504 | -81.86351 | 1549 ft | 100 kts | 86° |
| 2026-04-21 20:03 | 24.55514 | -81.85598 | 1484 ft | 98 kts | 86° |
| 2026-04-21 20:03 | 24.55523 | -81.84858 | 1417 ft | 97 kts | 85° |
| 2026-04-21 20:04 | 24.55532 | -81.84100 | 1303 ft | 103 kts | 86° |
| 2026-04-21 20:04 | 24.55539 | -81.83307 | 1179 ft | 104 kts | 87° |
| 2026-04-21 20:04 | 24.55547 | -81.82523 | 1041 ft | 105 kts | 87° |
| 2026-04-21 20:04 | 24.55555 | -81.81720 | 903 ft | 106 kts | 86° |
| 2026-04-21 20:05 | 24.55565 | -81.80896 | 775 ft | 115 kts | 90° |
| 2026-04-21 20:05 | 24.55573 | -81.80001 | 610 ft | 118 kts | 90° |
| 2026-04-21 20:05 | 24.55574 | -81.79122 | 458 ft | 106 kts | 85° |
| 2026-04-21 20:05 | 24.55595 | -81.78284 | 310 ft | 114 kts | 85° |
| 2026-04-21 20:06 | 24.55604 | -81.77411 | 161 ft | 115 kts | 88° |
| 2026-04-21 20:06 | 24.55610 | -81.76551 | 29 ft | 113 kts | 90° |
| 2026-04-21 20:06 | 24.55616 | -81.75791 | 8 ft | 81 kts | 89° |
| 2026-04-21 20:06 | 24.55619 | -81.75402 | 8 ft | 25 kts | 90° |
| 2026-04-21 20:07 | 24.55605 | -81.75259 | 7 ft | 15 kts | 140° |
| 2026-04-21 20:07 | 24.55526 | -81.75276 | 6 ft | 13 kts | 226° |
| 2026-04-21 20:07 | 24.55496 | -81.75334 | 6 ft | 14 kts | 243° |
| 2026-04-21 20:07 | 24.55487 | -81.75488 | 6 ft | 18 kts | 267° |
| 2026-04-21 20:08 | 24.55439 | -81.75574 | 6 ft | 11 kts | 217° |
| 2026-04-21 20:08 | 24.55407 | -81.75566 | 6 ft | 3 kts | 110° |
| 2026-04-21 20:08 | 24.55408 | -81.75544 | 6 ft | 5 kts | 89° |
| 2026-04-21 20:08 | 24.55408 | -81.75519 | 6 ft | 0 kts | 89° |